Time;durP1;ratioP1;P1;durP2;ratioP2;P2;SDS_P1;SDS_P2;PMS_P1;PMS_P2;Temp;Humidity;BMP_temperature;BMP_pressure;BME280_temperature;BME280_humidity;BME280_pressure;Samples;Min_cycle;Max_cycle;Signal;HPM_P1;HPM_P2
2023/06/01 00:00:49;;;;;;;4.10;3.43;;;;;;;17.01;68.14;98266.84;4201482;28;20725;-82
2023/06/01 00:02:53;;;;;;;6.33;3.87;;;;;;;17.03;67.54;98271.03;4195589;28;20692;-82
2023/06/01 00:04:57;;;;;;;6.07;3.67;;;;;;;17.08;67.46;98270.59;4202294;28;20717;-82
2023/06/01 00:07:01;;;;;;;3.97;3.30;;;;;;;17.08;68.43;98267.97;4200631;28;21242;-82
2023/06/01 00:09:04;;;;;;;4.60;3.30;;;;;;;17.05;67.64;98268.25;4202495;28;21339;-82
2023/06/01 00:11:08;;;;;;;4.00;3.13;;;;;;;17.05;68.40;98262.97;4199890;28;20689;-82
2023/06/01 00:13:11;;;;;;;5.87;3.57;;;;;;;17.03;68.08;98271.03;4191696;28;20731;-82
2023/06/01 00:15:14;;;;;;;4.00;2.90;;;;;;;17.02;67.88;98271.16;4199134;28;20631;-82
2023/06/01 00:17:17;;;;;;;6.77;3.90;;;;;;;17.00;68.70;98270.44;4197824;28;20667;-82
2023/06/01 00:19:20;;;;;;;4.27;3.07;;;;;;;16.96;70.20;98265.59;4199243;28;20635;-82
2023/06/01 00:21:25;;;;;;;4.00;3.30;;;;;;;16.92;68.26;98266.88;4179402;28;21284;-82
2023/06/01 00:23:28;;;;;;;5.50;3.97;;;;;;;16.89;67.22;98262.69;4195006;28;21410;-82
2023/06/01 00:25:31;;;;;;;4.97;3.20;;;;;;;16.89;67.77;98267.97;4198997;28;21052;-82
2023/06/01 00:27:35;;;;;;;5.40;3.43;;;;;;;16.88;68.02;98266.28;4200045;28;20987;-82
2023/06/01 00:29:39;;;;;;;4.70;3.40;;;;;;;16.86;69.02;98277.97;4198568;28;21054;-82
2023/06/01 00:31:42;;;;;;;4.20;3.23;;;;;;;16.82;68.98;98261.56;4200383;28;20661;-82
2023/06/01 00:33:45;;;;;;;4.17;3.43;;;;;;;16.76;69.87;98267.41;4199452;28;20664;-87
2023/06/01 00:35:49;;;;;;;4.43;3.10;;;;;;;16.69;68.69;98265.47;4186469;28;21248;-82
2023/06/01 00:37:53;;;;;;;4.27;3.57;;;;;;;16.58;69.28;98255.91;4204415;28;20633;-82
2023/06/01 00:39:57;;;;;;;4.43;3.53;;;;;;;16.51;69.86;98253.94;4199795;28;21383;-82
2023/06/01 00:42:00;;;;;;;4.90;3.50;;;;;;;16.45;68.75;98258.91;4184263;28;21272;-82
2023/06/01 00:44:03;;;;;;;5.23;3.63;;;;;;;16.44;70.48;98254.63;4185295;28;20627;-82
2023/06/01 00:46:06;;;;;;;4.53;3.47;;;;;;;16.39;68.65;98260.31;4185180;28;21170;-82
2023/06/01 00:48:09;;;;;;;6.83;3.83;;;;;;;16.40;69.72;98255.88;4198803;28;20640;-82
2023/06/01 00:50:13;;;;;;;5.43;3.60;;;;;;;16.36;70.72;98265.03;4188841;28;20654;-82
2023/06/01 00:52:16;;;;;;;4.07;3.10;;;;;;;16.35;69.50;98252.81;4205208;28;20681;-82
2023/06/01 00:54:21;;;;;;;5.70;3.43;;;;;;;16.34;70.15;98253.78;4207469;28;20668;-82
2023/06/01 00:56:24;;;;;;;4.10;3.27;;;;;;;16.34;70.94;98253.78;4200674;28;20632;-82
2023/06/01 00:58:28;;;;;;;5.53;3.40;;;;;;;16.29;69.60;98254.19;4181133;28;20728;-82
2023/06/01 01:00:31;;;;;;;5.77;3.80;;;;;;;16.28;68.78;98251.69;4177206;28;20643;-82
2023/06/01 01:02:34;;;;;;;4.40;3.13;;;;;;;16.27;69.57;98260.56;4199428;28;20636;-82
2023/06/01 01:04:37;;;;;;;3.40;2.90;;;;;;;16.21;70.78;98253.19;4185816;28;20634;-82
2023/06/01 01:06:48;;;;;;;4.20;3.10;;;;;;;16.15;72.03;98254.53;4201797;28;20650;-82
2023/06/01 01:09:07;;;;;;;4.20;3.60;;;;;;;16.14;71.58;98254.69;4200484;28;21007;-82
2023/06/01 01:11:19;;;;;;;4.33;3.17;;;;;;;16.13;70.27;98258.25;4203547;28;20731;-82
2023/06/01 01:13:28;;;;;;;4.80;2.97;;;;;;;16.03;70.69;98252.16;4190438;28;20634;-82
2023/06/01 01:15:37;;;;;;;6.50;3.87;;;;;;;15.95;72.46;98246.75;4201033;28;20636;-82
2023/06/01 01:17:44;;;;;;;4.43;3.70;;;;;;;15.91;71.79;98250.59;4202305;28;21288;-82
2023/06/01 01:19:56;;;;;;;5.73;3.43;;;;;;;15.89;71.79;98251.69;4177932;28;20641;-82
2023/06/01 01:22:08;;;;;;;4.20;3.47;;;;;;;15.88;72.66;98244.78;4204099;28;20633;-82
2023/06/01 01:24:24;;;;;;;3.73;3.20;;;;;;;15.86;71.62;98247.53;4194597;28;20747;-82
2023/06/01 01:26:43;;;;;;;4.73;3.37;;;;;;;15.83;73.71;98246.94;4201925;28;21007;-82
2023/06/01 01:28:50;;;;;;;5.20;3.63;;;;;;;15.78;72.91;98246.53;4187932;28;20633;-82
2023/06/01 01:30:55;;;;;;;4.00;3.37;;;;;;;15.76;72.12;98245.84;4203400;28;20735;-82
2023/06/01 01:33:00;;;;;;;6.07;3.50;;;;;;;15.76;71.90;98246.66;4200033;28;20659;-82
2023/06/01 01:35:05;;;;;;;3.70;3.00;;;;;;;15.78;72.72;98249.16;4191258;28;20649;-82
2023/06/01 01:37:08;;;;;;;6.40;3.60;;;;;;;15.80;71.21;98252.47;4181547;28;20654;-82
2023/06/01 01:39:11;;;;;;;4.90;3.53;;;;;;;15.77;72.98;98245.72;4188821;28;20677;-81
2023/06/01 01:41:15;;;;;;;4.90;3.77;;;;;;;15.74;73.24;98240.72;4198429;28;20720;-82
2023/06/01 01:43:18;;;;;;;3.87;3.13;;;;;;;15.73;73.04;98243.47;4199304;28;20639;-82
2023/06/01 01:45:22;;;;;;;5.73;4.00;;;;;;;15.71;73.57;98234.84;4188414;28;20625;-81
2023/06/01 01:47:31;;;;;;;5.90;4.00;;;;;;;15.67;72.24;98239.56;4195326;28;20636;-82
2023/06/01 01:49:38;;;;;;;5.17;3.27;;;;;;;15.64;72.90;98236.38;4197536;28;20891;-82
2023/06/01 01:51:46;;;;;;;6.50;4.10;;;;;;;15.64;71.97;98242.47;4203459;28;21252;-81
2023/06/01 01:53:50;;;;;;;3.93;3.13;;;;;;;15.62;73.37;98243.53;4210905;28;20644;-82
2023/06/01 01:55:54;;;;;;;4.53;3.60;;;;;;;15.58;72.94;98237.72;4215167;28;20657;-82
2023/06/01 01:58:00;;;;;;;5.20;3.17;;;;;;;15.60;73.48;98243.66;4201109;28;20631;-81
2023/06/01 02:00:04;;;;;;;5.20;3.37;;;;;;;15.59;72.26;98239.41;4185218;28;20628;-81
2023/06/01 02:02:16;;;;;;;5.83;3.40;;;;;;;15.59;72.54;98244.66;4199547;28;20628;-81
2023/06/01 02:04:19;;;;;;;6.00;3.73;;;;;;;15.55;72.63;98237.16;4196548;28;20659;-81
2023/06/01 02:06:22;;;;;;;5.47;3.50;;;;;;;15.53;72.44;98236.47;4179480;28;20650;-82
2023/06/01 02:08:26;;;;;;;6.77;3.70;;;;;;;15.52;73.16;98241.88;4199628;28;20624;-82
2023/06/01 02:10:29;;;;;;;5.47;4.07;;;;;;;15.52;72.24;98241.88;4198349;28;21074;-81
2023/06/01 02:12:32;;;;;;;5.00;3.33;;;;;;;15.51;73.31;98237.56;4200923;28;20651;-81
2023/06/01 02:14:35;;;;;;;4.83;3.80;;;;;;;15.48;73.25;98243.91;4198449;28;20733;-81
2023/06/01 02:16:38;;;;;;;4.57;3.50;;;;;;;15.46;73.09;98237.94;4200319;28;21081;-81
2023/06/01 02:18:45;;;;;;;4.70;3.20;;;;;;;15.44;73.55;98236.41;4180037;28;20663;-82
2023/06/01 02:20:49;;;;;;;5.07;3.60;;;;;;;15.39;72.87;98231.53;4185408;28;21028;-82
2023/06/01 02:22:52;;;;;;;4.70;3.43;;;;;;;15.38;73.67;98229.03;4199215;28;20656;-82
2023/06/01 02:24:55;;;;;;;3.50;3.20;;;;;;;15.32;74.51;98226.94;4202261;28;20640;-82
2023/06/01 02:26:58;;;;;;;5.20;3.80;;;;;;;15.29;73.57;98227.19;4184057;28;20633;-82
2023/06/01 02:29:04;;;;;;;4.57;3.60;;;;;;;15.28;74.52;98233.44;4182600;28;20676;-82
2023/06/01 02:31:08;;;;;;;4.37;3.57;;;;;;;15.23;74.50;98231.19;4186092;28;21709;-82
2023/06/01 02:33:12;;;;;;;5.20;3.80;;;;;;;15.25;73.28;98236.31;4186991;28;21045;-81
2023/06/01 02:35:16;;;;;;;5.20;3.27;;;;;;;15.24;73.31;98230.22;4193934;28;20632;-82
2023/06/01 02:37:19;;;;;;;4.17;3.77;;;;;;;15.21;73.53;98232.28;4188630;28;20718;-82
2023/06/01 02:39:23;;;;;;;4.50;3.53;;;;;;;15.18;73.20;98227.28;4199252;28;21037;-82
2023/06/01 02:41:26;;;;;;;5.37;3.73;;;;;;;15.08;74.15;98232.44;4200681;28;20633;-81
2023/06/01 02:43:29;;;;;;;4.57;4.07;;;;;;;14.97;74.09;98225.59;4186546;28;20631;-82
2023/06/01 02:45:33;;;;;;;5.00;3.67;;;;;;;14.87;74.44;98230.78;4183335;28;20647;-82
2023/06/01 02:47:36;;;;;;;4.83;4.00;;;;;;;14.79;74.94;98227.97;4199407;28;20632;-81
2023/06/01 02:49:39;;;;;;;6.03;3.70;;;;;;;14.75;74.63;98229.16;4186266;28;21237;-82
2023/06/01 02:51:44;;;;;;;4.17;3.40;;;;;;;14.68;74.92;98230.63;4201680;28;21109;-81
2023/06/01 02:53:53;;;;;;;5.30;3.83;;;;;;;14.60;75.28;98230.44;4183562;28;20659;-81
2023/06/01 02:55:56;;;;;;;6.77;4.40;;;;;;;14.55;75.58;98223.06;4198968;28;20646;-81
2023/06/01 02:58:22;;;;;;;5.30;4.00;;;;;;;14.54;75.97;98229.25;4197645;28;20631;-81
2023/06/01 03:00:41;;;;;;;4.30;3.27;;;;;;;14.58;75.91;98230.69;4203031;28;20629;-82
2023/06/01 03:02:45;;;;;;;6.10;3.50;;;;;;;14.59;75.44;98226.13;4191922;28;20635;-81
2023/06/01 03:04:48;;;;;;;3.90;3.23;;;;;;;14.62;75.14;98239.00;4185829;28;20623;-82
2023/06/01 03:06:53;;;;;;;4.83;3.60;;;;;;;14.62;76.47;98231.13;4183208;28;21063;-82
2023/06/01 03:09:12;;;;;;;4.60;3.73;;;;;;;14.62;75.66;98228.50;4198165;28;20743;-81
2023/06/01 03:11:25;;;;;;;5.20;3.90;;;;;;;14.57;75.62;98229.00;4197061;28;20658;-81
2023/06/01 03:13:28;;;;;;;4.57;3.90;;;;;;;14.57;75.73;98226.38;4201951;28;21097;-81
2023/06/01 03:15:33;;;;;;;5.27;3.70;;;;;;;14.58;76.03;98236.75;4184445;28;20629;-82
2023/06/01 03:17:36;;;;;;;5.57;3.60;;;;;;;14.52;76.15;98231.19;4200252;28;20725;-81
2023/06/01 03:19:40;;;;;;;5.90;3.80;;;;;;;14.53;76.39;98235.47;4199093;28;20717;-82
2023/06/01 03:21:59;;;;;;;4.60;3.90;;;;;;;14.50;76.08;98235.72;4209861;28;20697;-82
2023/06/01 03:24:03;;;;;;;5.53;4.37;;;;;;;14.52;75.72;98239.06;4207736;28;20862;-81
2023/06/01 03:26:06;;;;;;;6.43;4.17;;;;;;;14.52;76.37;98241.69;4202777;28;20636;-81
2023/06/01 03:28:10;;;;;;;6.20;4.40;;;;;;;14.50;76.71;98240.97;4201027;28;20632;-81
2023/06/01 03:30:14;;;;;;;7.10;4.50;;;;;;;14.47;76.87;98238.59;4194728;28;21289;-81
2023/06/01 03:32:18;;;;;;;4.97;4.17;;;;;;;14.45;76.92;98238.72;4193011;28;20658;-81
2023/06/01 03:34:21;;;;;;;6.70;4.07;;;;;;;14.43;77.21;98245.88;4190855;28;20659;-82
2023/06/01 03:36:25;;;;;;;6.70;4.40;;;;;;;14.39;77.61;98249.72;4197699;28;20627;-81
2023/06/01 03:38:29;;;;;;;4.90;3.77;;;;;;;14.38;77.29;98248.03;4199722;28;21504;-81
2023/06/01 03:40:32;;;;;;;6.33;4.13;;;;;;;14.41;77.06;98253.03;4194723;28;20628;-81
2023/06/01 03:42:35;;;;;;;5.77;4.67;;;;;;;14.39;77.04;98251.53;4197939;28;20650;-82
2023/06/01 03:44:40;;;;;;;6.57;4.90;;;;;;;14.40;77.47;98253.16;4200632;28;20725;-81
2023/06/01 03:46:43;;;;;;;6.27;4.40;;;;;;;14.40;77.28;98255.78;4196976;28;20638;-81
2023/06/01 03:48:47;;;;;;;6.40;4.77;;;;;;;14.40;77.11;98254.03;4191336;28;21029;-82
2023/06/01 03:50:51;;;;;;;7.83;4.77;;;;;;;14.40;76.70;98264.53;4213868;28;20625;-81
2023/06/01 03:52:54;;;;;;;7.90;5.10;;;;;;;14.41;76.83;98265.34;4188520;28;20635;-81
2023/06/01 03:55:00;;;;;;;5.27;3.93;;;;;;;14.44;77.16;98262.47;4186968;28;21067;-82
2023/06/01 03:57:22;;;;;;;5.70;4.40;;;;;;;14.42;77.50;98257.34;4205875;28;20652;-81
2023/06/01 03:59:25;;;;;;;5.30;4.03;;;;;;;14.44;77.28;98258.06;4196123;28;20636;-81
2023/06/01 04:01:29;;;;;;;6.77;4.13;;;;;;;14.37;76.46;98254.28;4200330;28;20731;-82
2023/06/01 04:03:32;;;;;;;6.77;4.40;;;;;;;14.33;77.75;98267.75;4198643;28;21503;-82
2023/06/01 04:05:37;;;;;;;5.57;4.20;;;;;;;14.32;77.45;98259.03;4183967;28;20659;-82
2023/06/01 04:07:40;;;;;;;6.90;4.30;;;;;;;14.35;77.78;98276.34;4192493;28;21376;-82
2023/06/01 04:09:44;;;;;;;5.90;4.10;;;;;;;14.36;78.07;98257.03;4179598;28;20672;-81
2023/06/01 04:11:48;;;;;;;7.57;4.67;;;;;;;14.38;78.65;98266.41;4180929;28;20681;-81
2023/06/01 04:13:51;;;;;;;7.30;5.27;;;;;;;14.45;78.23;98266.75;4186277;28;20659;-82
2023/06/01 04:15:55;;;;;;;7.70;4.93;;;;;;;14.49;78.16;98273.44;4186195;28;20673;-82
2023/06/01 04:17:58;;;;;;;5.17;4.67;;;;;;;14.54;78.28;98276.50;4203630;28;21236;-82
2023/06/01 04:20:06;;;;;;;10.90;5.93;;;;;;;14.59;77.91;98276.00;4197294;28;20635;-81
2023/06/01 04:22:09;;;;;;;7.30;5.73;;;;;;;14.65;77.29;98275.50;4183598;28;20631;-81
2023/06/01 04:24:12;;;;;;;8.00;5.50;;;;;;;14.71;77.26;98280.25;4205818;28;20631;-82
2023/06/01 04:26:15;;;;;;;7.97;5.87;;;;;;;14.76;77.01;98286.00;4184805;28;20745;-82
2023/06/01 04:28:20;;;;;;;6.00;4.93;;;;;;;14.78;77.70;98285.88;4183412;28;20687;-82
2023/06/01 04:30:24;;;;;;;6.57;5.60;;;;;;;14.82;77.85;98282.00;4185478;28;20678;-82
2023/06/01 04:32:27;;;;;;;8.33;5.40;;;;;;;14.86;76.88;98284.25;4199368;28;20628;-81
2023/06/01 04:34:30;;;;;;;7.20;4.77;;;;;;;14.88;77.21;98289.38;4201410;28;20661;-82
2023/06/01 04:36:37;;;;;;;7.37;5.03;;;;;;;14.90;76.99;98280.44;4199785;28;20631;-82
2023/06/01 04:38:41;;;;;;;7.33;5.10;;;;;;;14.95;77.52;98294.00;4200761;28;20665;-82
2023/06/01 04:40:45;;;;;;;7.23;5.60;;;;;;;15.00;76.46;98291.00;4199765;28;21648;-82
2023/06/01 04:42:55;;;;;;;6.17;5.00;;;;;;;15.06;76.92;98293.94;4201678;28;20666;-82
2023/06/01 04:45:01;;;;;;;7.40;5.53;;;;;;;15.10;77.19;98295.38;4203316;28;21038;-82
2023/06/01 04:47:04;;;;;;;8.60;5.53;;;;;;;15.13;77.23;98292.50;4184809;28;21107;-82
2023/06/01 04:49:07;;;;;;;6.93;5.07;;;;;;;15.19;76.52;98297.28;4200187;28;21083;-82
2023/06/01 04:51:10;;;;;;;6.73;5.30;;;;;;;15.17;75.72;98294.78;4200000;28;20655;-82
2023/06/01 04:53:14;;;;;;;7.13;5.27;;;;;;;15.16;76.13;98290.44;4201415;28;20645;-81
2023/06/01 04:55:17;;;;;;;7.10;5.73;;;;;;;15.17;74.80;98296.56;4198350;28;20655;-82
2023/06/01 04:57:20;;;;;;;7.03;5.27;;;;;;;15.15;75.47;98295.81;4187071;28;20633;-82
2023/06/01 04:59:24;;;;;;;7.33;5.30;;;;;;;15.19;75.24;98297.28;4181399;28;20624;-81
2023/06/01 05:01:29;;;;;;;6.97;5.53;;;;;;;15.22;74.69;98295.22;4203293;28;20694;-82
2023/06/01 05:03:33;;;;;;;7.87;6.03;;;;;;;15.28;75.66;98296.50;4204487;28;20632;-82
2023/06/01 05:05:36;;;;;;;8.00;6.20;;;;;;;15.37;75.16;98298.38;4198020;28;20660;-82
2023/06/01 05:07:43;;;;;;;8.37;5.83;;;;;;;15.44;75.54;98300.34;4190177;28;20628;-82
2023/06/01 05:09:46;;;;;;;6.80;6.03;;;;;;;15.53;75.69;98299.56;4195565;28;20634;-81
2023/06/01 05:11:49;;;;;;;7.80;6.10;;;;;;;15.59;76.86;98301.66;4200368;28;20646;-81
2023/06/01 05:13:54;;;;;;;7.63;6.70;;;;;;;15.66;76.50;98311.53;4197130;28;21022;-81
2023/06/01 05:15:57;;;;;;;7.67;6.23;;;;;;;15.75;75.91;98310.75;4199388;28;21011;-81
2023/06/01 05:18:02;;;;;;;7.10;5.90;;;;;;;15.82;74.16;98317.16;4195438;28;20650;-82
2023/06/01 05:20:08;;;;;;;7.77;6.50;;;;;;;15.93;74.86;98319.69;4197858;28;20633;-81
2023/06/01 05:22:12;;;;;;;7.30;6.50;;;;;;;16.01;76.01;98325.13;4203574;28;20674;-82
2023/06/01 05:24:16;;;;;;;7.60;6.70;;;;;;;16.07;74.63;98329.84;4200350;28;21283;-81
2023/06/01 05:26:19;;;;;;;8.00;6.63;;;;;;;16.13;75.57;98319.66;4183922;28;20664;-82
2023/06/01 05:28:22;;;;;;;7.13;6.33;;;;;;;16.24;73.80;98322.22;4194492;28;20639;-82
2023/06/01 05:30:25;;;;;;;8.73;6.40;;;;;;;16.40;76.94;98326.94;4194781;28;20665;-82
2023/06/01 05:32:29;;;;;;;7.53;6.60;;;;;;;16.53;76.32;98326.56;4177341;28;21186;-82
2023/06/01 05:34:40;;;;;;;8.27;6.93;;;;;;;16.69;75.27;98328.69;4195017;28;20659;-82
2023/06/01 05:36:43;;;;;;;7.80;5.90;;;;;;;16.86;75.47;98325.38;4197168;28;20645;-82
2023/06/01 05:38:47;;;;;;;9.07;6.60;;;;;;;17.04;73.09;98325.38;4181366;28;20621;-82
2023/06/01 05:40:50;;;;;;;7.57;6.70;;;;;;;17.31;74.63;98338.72;4193504;28;20632;-82
2023/06/01 05:42:53;;;;;;;8.30;6.73;;;;;;;17.64;71.83;98346.19;4202178;28;21068;-82
2023/06/01 05:44:56;;;;;;;7.70;6.30;;;;;;;17.95;71.25;98336.09;4186289;28;20661;-82
2023/06/01 05:46:59;;;;;;;8.83;6.30;;;;;;;18.30;70.95;98336.28;4196649;28;20673;-82
2023/06/01 05:49:03;;;;;;;7.53;6.73;;;;;;;18.62;70.25;98350.69;4185778;28;20696;-82
2023/06/01 05:51:07;;;;;;;10.10;6.47;;;;;;;18.93;70.20;98342.28;4195347;28;20651;-83
2023/06/01 05:53:10;;;;;;;8.10;6.53;;;;;;;19.21;69.29;98348.38;4175527;28;20631;-81
2023/06/01 05:55:13;;;;;;;6.80;6.10;;;;;;;19.44;67.74;98353.88;4193156;28;20686;-81
2023/06/01 05:57:17;;;;;;;9.43;6.50;;;;;;;19.68;66.43;98350.56;4190968;28;24055;-82
2023/06/01 05:59:20;;;;;;;7.63;6.70;;;;;;;19.93;67.11;98348.81;4183987;28;20686;-82
2023/06/01 06:01:24;;;;;;;6.73;5.83;;;;;;;20.22;65.99;98351.97;4186260;28;20645;-82
2023/06/01 06:03:28;;;;;;;9.50;5.87;;;;;;;20.49;66.85;98351.75;4215603;28;20665;-82
2023/06/01 06:05:32;;;;;;;9.03;6.30;;;;;;;20.82;67.74;98359.69;4182107;28;20716;-81
2023/06/01 06:07:36;;;;;;;10.57;6.53;;;;;;;21.14;66.63;98362.41;4196317;28;20775;-82
2023/06/01 06:09:41;;;;;;;7.93;7.13;;;;;;;21.38;67.70;98361.47;4197688;28;20675;-82
2023/06/01 06:11:44;;;;;;;7.53;6.13;;;;;;;21.61;65.62;98357.19;4182691;28;20666;-82
2023/06/01 06:13:48;;;;;;;8.20;6.70;;;;;;;21.78;64.59;98359.69;4199933;28;20617;-82
2023/06/01 06:15:52;;;;;;;7.20;6.20;;;;;;;21.98;63.86;98360.13;4194498;28;20669;-82
2023/06/01 06:17:55;;;;;;;11.77;6.53;;;;;;;22.19;64.42;98360.44;4194932;28;20633;-82
2023/06/01 06:19:58;;;;;;;7.70;5.40;;;;;;;22.29;62.49;98365.41;4196619;28;20634;-82
2023/06/01 06:22:01;;;;;;;6.73;5.10;;;;;;;22.46;64.01;98361.72;4180840;28;21513;-82
2023/06/01 06:24:06;;;;;;;8.80;6.80;;;;;;;22.71;63.53;98370.44;4192870;28;20662;-82
2023/06/01 06:26:09;;;;;;;6.83;5.77;;;;;;;22.90;61.91;98362.88;4172810;28;22384;-82
2023/06/01 06:28:12;;;;;;;8.30;5.37;;;;;;;23.13;62.44;98366.41;4168004;28;20684;-81
2023/06/01 06:30:16;;;;;;;7.30;5.50;;;;;;;23.35;62.96;98367.25;4185240;28;20692;-82
2023/06/01 06:32:19;;;;;;;6.53;5.70;;;;;;;23.55;63.23;98370.28;4197981;28;20728;-82
2023/06/01 06:34:22;;;;;;;7.70;5.83;;;;;;;23.78;61.87;98369.28;4197373;28;20631;-81
2023/06/01 06:36:25;;;;;;;6.93;5.00;;;;;;;23.99;62.78;98367.59;4199710;28;20726;-81
2023/06/01 06:38:29;;;;;;;6.40;5.47;;;;;;;24.20;61.74;98365.84;4202250;28;20695;-82
2023/06/01 06:40:33;;;;;;;6.83;5.37;;;;;;;24.38;61.35;98379.72;4199279;28;20670;-84
2023/06/01 06:42:37;;;;;;;5.63;4.80;;;;;;;24.49;59.21;98368.59;4172899;28;21589;-84
2023/06/01 06:44:40;;;;;;;6.37;5.50;;;;;;;24.51;58.27;98369.25;4191087;28;20734;-81
2023/06/01 06:46:43;;;;;;;6.93;5.63;;;;;;;24.59;58.60;98366.47;4194301;28;20622;-83
2023/06/01 06:48:46;;;;;;;5.93;4.87;;;;;;;24.74;59.61;98367.28;4186101;28;21029;-83
2023/06/01 06:50:49;;;;;;;7.77;5.53;;;;;;;25.00;58.17;98375.66;4196715;28;20623;-82
2023/06/01 06:52:53;;;;;;;6.43;4.77;;;;;;;25.21;57.43;98368.50;4184706;28;20655;-83
2023/06/01 06:54:56;;;;;;;5.47;4.30;;;;;;;25.43;58.59;98371.00;4202650;28;21081;-83
2023/06/01 06:57:00;;;;;;;5.73;4.90;;;;;;;25.64;58.41;98377.22;4203721;28;20720;-83
2023/06/01 06:59:03;;;;;;;4.53;3.60;;;;;;;25.76;55.49;98370.34;4205367;28;20649;-83
2023/06/01 07:01:10;;;;;;;5.00;3.80;;;;;;;25.93;56.28;98368.22;4183472;28;20644;-82
2023/06/01 07:03:13;;;;;;;6.40;3.80;;;;;;;26.08;55.34;98367.94;4189804;28;20667;-82
2023/06/01 07:05:17;;;;;;;4.90;4.20;;;;;;;26.09;55.00;98363.41;4203936;28;20623;-83
2023/06/01 07:07:20;;;;;;;5.77;4.43;;;;;;;26.12;54.61;98363.84;4200190;28;21017;-82
2023/06/01 07:09:23;;;;;;;4.90;3.97;;;;;;;26.25;54.44;98365.78;4205490;28;20634;-82
2023/06/01 07:11:27;;;;;;;4.60;3.87;;;;;;;26.32;53.85;98364.03;4200721;28;21038;-82
2023/06/01 07:13:32;;;;;;;3.77;3.30;;;;;;;26.38;53.11;98372.09;4188647;28;21087;-82
2023/06/01 07:15:35;;;;;;;5.67;4.33;;;;;;;26.46;54.42;98366.59;4186152;28;20778;-81
2023/06/01 07:17:38;;;;;;;7.00;4.70;;;;;;;26.60;54.63;98357.63;4187530;28;20632;-81
2023/06/01 07:19:41;;;;;;;5.03;4.47;;;;;;;26.70;54.70;98360.72;4190789;28;20647;-81
2023/06/01 07:21:44;;;;;;;4.27;3.33;;;;;;;26.76;53.15;98365.31;4186888;28;20995;-81
2023/06/01 07:23:48;;;;;;;4.00;3.60;;;;;;;26.79;52.82;98359.53;4197466;28;20640;-81
2023/06/01 07:25:51;;;;;;;5.30;3.80;;;;;;;26.83;51.73;98358.94;4204334;28;20616;-81
2023/06/01 07:27:56;;;;;;;5.20;3.60;;;;;;;26.78;52.19;98349.88;4185869;28;20690;-81
2023/06/01 07:30:00;;;;;;;3.93;3.30;;;;;;;26.73;51.83;98354.97;4199326;28;21152;-80
2023/06/01 07:32:05;;;;;;;5.03;3.90;;;;;;;26.78;53.29;98347.19;4189334;28;21219;-80
2023/06/01 07:34:08;;;;;;;4.63;3.87;;;;;;;27.00;52.46;98346.06;4190798;28;20777;-80
2023/06/01 07:36:11;;;;;;;4.07;3.67;;;;;;;27.08;53.89;98347.56;4197766;28;20681;-81
2023/06/01 07:38:15;;;;;;;6.97;4.07;;;;;;;27.27;54.25;98348.63;4198251;28;20724;-79
2023/06/01 07:40:18;;;;;;;4.67;3.77;;;;;;;27.51;55.21;98350.78;4197079;28;20634;-78
2023/06/01 07:42:21;;;;;;;11.77;4.57;;;;;;;27.66;53.58;98345.03;4177043;28;20620;-80
2023/06/01 07:44:24;;;;;;;4.63;3.80;;;;;;;27.71;51.16;98349.75;4199245;28;20637;-81
2023/06/01 07:46:29;;;;;;;3.70;3.30;;;;;;;27.72;50.66;98349.56;4198782;28;20674;-80
2023/06/01 07:48:35;;;;;;;4.13;3.47;;;;;;;27.71;52.03;98344.41;4187188;28;20624;-80
2023/06/01 07:50:39;;;;;;;4.93;4.13;;;;;;;27.86;52.39;98345.88;4199899;28;20632;-80
2023/06/01 07:52:42;;;;;;;7.23;4.07;;;;;;;27.94;50.40;98352.88;4201001;28;20707;-80
2023/06/01 07:54:45;;;;;;;7.27;3.87;;;;;;;28.15;50.29;98348.97;4181077;28;20639;-83
2023/06/01 07:56:48;;;;;;;5.20;4.33;;;;;;;28.26;50.59;98344.84;4196927;28;20689;-81
2023/06/01 07:58:52;;;;;;;5.07;3.83;;;;;;;28.36;50.74;98348.75;4197523;28;20737;-81
2023/06/01 08:00:55;;;;;;;4.97;3.97;;;;;;;28.48;49.64;98348.91;4186821;28;20676;-81
2023/06/01 08:03:05;;;;;;;6.43;4.93;;;;;;;28.55;49.76;98345.16;4207688;28;20728;-81
2023/06/01 08:05:11;;;;;;;4.50;3.83;;;;;;;28.69;50.75;98341.47;4196168;28;20689;-81
2023/06/01 08:07:16;;;;;;;4.80;3.90;;;;;;;28.73;48.58;98342.69;4199442;28;21096;-81
2023/06/01 08:09:21;;;;;;;4.40;4.00;;;;;;;28.76;49.54;98337.72;4201456;28;20633;-81
2023/06/01 08:11:24;;;;;;;6.00;4.10;;;;;;;28.76;49.52;98336.88;4181592;28;20672;-81
2023/06/01 08:13:27;;;;;;;5.33;4.00;;;;;;;28.66;48.61;98336.50;4193270;28;20636;-81
2023/06/01 08:15:31;;;;;;;5.97;4.40;;;;;;;28.46;48.67;98324.13;4193429;28;20712;-81
2023/06/01 08:17:35;;;;;;;7.37;4.70;;;;;;;28.49;49.99;98328.06;4194609;28;20750;-82
2023/06/01 08:19:41;;;;;;;5.47;4.10;;;;;;;28.65;50.44;98324.91;4191261;28;20632;-80
2023/06/01 08:21:45;;;;;;;4.70;3.97;;;;;;;28.83;49.46;98329.63;4191837;28;21803;-80
2023/06/01 08:23:51;;;;;;;6.03;4.60;;;;;;;28.95;50.50;98327.94;4190461;28;21262;-80
2023/06/01 08:25:54;;;;;;;6.30;4.80;;;;;;;29.11;50.65;98326.41;4197527;28;20648;-80
2023/06/01 08:27:57;;;;;;;5.70;4.50;;;;;;;29.29;53.31;98331.06;4198782;28;21111;-80
2023/06/01 08:30:01;;;;;;;6.60;4.60;;;;;;;29.52;49.00;98332.19;4198413;28;20732;-80
2023/06/01 08:32:04;;;;;;;5.47;4.63;;;;;;;29.40;48.24;98323.16;4193996;28;21025;-79
2023/06/01 08:34:08;;;;;;;6.70;4.50;;;;;;;29.50;48.70;98328.91;4192710;28;20726;-80
2023/06/01 08:36:12;;;;;;;6.10;4.93;;;;;;;29.68;48.35;98329.78;4194605;28;20750;-79
2023/06/01 08:38:16;;;;;;;5.73;4.23;;;;;;;29.71;46.70;98323.97;4195483;28;21082;-81
2023/06/01 08:40:19;;;;;;;6.00;4.63;;;;;;;29.47;47.32;98322.06;4200106;28;20629;-81
2023/06/01 08:42:27;;;;;;;5.60;3.90;;;;;;;29.34;47.03;98323.19;4196458;28;20740;-81
2023/06/01 08:44:34;;;;;;;6.83;4.70;;;;;;;29.33;47.43;98318.84;4186837;28;21218;-81
2023/06/01 08:46:41;;;;;;;8.53;4.70;;;;;;;29.39;47.10;98309.94;4198548;28;21162;-80
2023/06/01 08:48:44;;;;;;;4.93;4.43;;;;;;;29.50;48.57;98312.75;4196104;28;20988;-81
2023/06/01 08:50:49;;;;;;;6.87;5.10;;;;;;;29.63;49.52;98313.47;4198053;28;20631;-81
2023/06/01 08:52:55;;;;;;;4.87;4.30;;;;;;;29.59;48.24;98312.25;4194115;28;20666;-81
2023/06/01 08:54:59;;;;;;;8.80;4.70;;;;;;;29.65;47.01;98313.25;4171874;28;20643;-81
2023/06/01 08:57:06;;;;;;;5.60;4.30;;;;;;;29.60;48.33;98302.31;4197669;28;20929;-81
2023/06/01 08:59:11;;;;;;;6.03;4.53;;;;;;;29.69;47.99;98303.69;4198826;28;20667;-81
2023/06/01 09:01:20;;;;;;;6.90;4.80;;;;;;;29.76;48.57;98307.16;4204065;28;20703;-81
2023/06/01 09:03:25;;;;;;;5.20;4.70;;;;;;;29.70;47.74;98302.66;4196905;28;21300;-81
2023/06/01 09:05:28;;;;;;;6.40;5.10;;;;;;;29.57;48.16;98294.69;4192533;28;21343;-81
2023/06/01 09:07:31;;;;;;;5.40;4.73;;;;;;;29.63;47.25;98297.31;4196344;28;20638;-81
2023/06/01 09:09:38;;;;;;;7.23;4.80;;;;;;;29.65;48.33;98300.63;4199270;28;20715;-81
2023/06/01 09:11:41;;;;;;;6.20;5.10;;;;;;;29.76;49.19;98301.78;4190584;28;20632;-81
2023/06/01 09:13:45;;;;;;;6.97;5.17;;;;;;;29.77;46.75;98298.03;4200477;28;21274;-81
2023/06/01 09:15:52;;;;;;;5.90;5.07;;;;;;;29.75;48.88;98295.56;4194220;28;20662;-81
2023/06/01 09:18:06;;;;;;;6.60;5.10;;;;;;;29.88;48.81;98292.81;4195479;28;21203;-81
2023/06/01 09:20:12;;;;;;;5.30;4.60;;;;;;;29.81;47.93;98289.34;4200753;28;20798;-81
2023/06/01 09:22:16;;;;;;;6.03;4.37;;;;;;;29.86;48.03;98291.38;4204406;28;20619;-81
2023/06/01 09:24:19;;;;;;;6.40;5.00;;;;;;;29.76;49.10;98291.84;4201139;28;20717;-81
2023/06/01 09:26:27;;;;;;;5.47;4.40;;;;;;;29.55;46.23;98289.53;4196223;28;20635;-81
2023/06/01 09:28:31;;;;;;;7.93;5.70;;;;;;;29.30;46.75;98287.84;4200272;28;21063;-81
2023/06/01 09:30:41;;;;;;;5.50;4.57;;;;;;;29.31;47.32;98278.75;4193685;28;20742;-81
2023/06/01 09:32:50;;;;;;;5.13;4.63;;;;;;;29.32;47.91;98285.78;4188202;28;20650;-81
2023/06/01 09:34:54;;;;;;;5.20;4.60;;;;;;;29.47;48.91;98281.72;4186187;28;20643;-81
2023/06/01 09:36:57;;;;;;;8.90;5.30;;;;;;;29.64;49.59;98288.22;4197438;28;20630;-81
2023/06/01 09:39:02;;;;;;;5.03;4.57;;;;;;;29.59;49.50;98285.38;4200023;28;20627;-81
2023/06/01 09:41:05;;;;;;;6.13;5.53;;;;;;;29.57;47.81;98281.22;4187551;28;20646;-82
2023/06/01 09:43:22;;;;;;;7.17;4.90;;;;;;;29.61;48.49;98282.44;4191806;28;20631;-87
2023/06/01 09:45:25;;;;;;;5.50;4.23;;;;;;;29.57;47.33;98282.06;4194573;28;20631;-87
2023/06/01 09:47:29;;;;;;;5.47;4.87;;;;;;;29.55;47.30;98273.38;4198668;28;20959;-87